Time;durP1;ratioP1;P1;durP2;ratioP2;P2;SDS_P1;SDS_P2;PMS_P1;PMS_P2;Temp;Humidity;BMP_temperature;BMP_pressure;BME280_temperature;BME280_humidity;BME280_pressure;Samples;Min_cycle;Max_cycle;Signal;HPM_P1;HPM_P2
2023/02/18 00:00:26;;;;;;;4.40;3.90;;;;;;;10.30;100.00;98610.67;109625;1251;63780;-80
2023/02/18 00:03:13;;;;;;;4.50;4.10;;;;;;;10.25;100.00;98603.50;109605;1251;59000;-80
2023/02/18 00:05:39;;;;;;;6.10;4.70;;;;;;;10.22;100.00;98600.00;109647;1251;58847;-78
2023/02/18 00:08:06;;;;;;;4.20;3.80;;;;;;;10.19;100.00;98601.81;109484;1252;66578;-79
2023/02/18 00:10:32;;;;;;;5.10;4.20;;;;;;;10.14;100.00;98609.06;109682;1251;60793;-79
2023/02/18 00:13:00;;;;;;;4.60;4.00;;;;;;;10.10;100.00;98609.55;109633;1251;64714;-79
2023/02/18 00:15:26;;;;;;;4.40;4.00;;;;;;;10.06;100.00;98608.20;109580;1251;58943;-79
2023/02/18 00:17:53;;;;;;;4.20;3.90;;;;;;;10.05;100.00;98606.74;109656;1253;59806;-79
2023/02/18 00:20:20;;;;;;;4.10;3.60;;;;;;;10.03;100.00;98613.23;109627;1251;67114;-79
2023/02/18 00:22:46;;;;;;;4.60;3.80;;;;;;;10.02;100.00;98610.26;109600;1251;60943;-79
2023/02/18 00:25:13;;;;;;;4.30;3.90;;;;;;;10.02;100.00;98615.80;109618;1251;65014;-80
2023/02/18 00:27:40;;;;;;;4.50;4.10;;;;;;;10.02;100.00;98613.84;109632;1251;58924;-79
2023/02/18 00:30:07;;;;;;;4.90;4.40;;;;;;;10.03;100.00;98617.51;109668;1251;58856;-79
2023/02/18 00:32:34;;;;;;;5.00;4.20;;;;;;;10.04;100.00;98620.10;109397;1251;64722;-79
2023/02/18 00:35:01;;;;;;;4.80;4.10;;;;;;;10.05;100.00;98619.65;109696;1251;60158;-78
2023/02/18 00:37:27;;;;;;;5.90;4.60;;;;;;;10.06;100.00;98611.41;109659;1251;64806;-79
2023/02/18 00:39:54;;;;;;;5.40;3.90;;;;;;;10.08;100.00;98611.60;109629;1251;59432;-79
2023/02/18 00:42:22;;;;;;;4.40;3.50;;;;;;;10.12;100.00;98613.17;109647;1251;58866;-79
2023/02/18 00:44:48;;;;;;;6.60;4.20;;;;;;;10.13;100.00;98608.97;109647;1250;65993;-80
2023/02/18 00:47:15;;;;;;;6.10;4.20;;;;;;;10.15;100.00;98605.66;109647;1251;59016;-80
2023/02/18 00:49:41;;;;;;;5.60;4.00;;;;;;;10.17;100.00;98606.60;109612;1251;65209;-80
2023/02/18 00:52:08;;;;;;;7.00;4.50;;;;;;;10.18;100.00;98608.78;109463;1254;59055;-80
2023/02/18 00:54:35;;;;;;;4.00;3.60;;;;;;;10.20;100.00;98612.07;109630;1251;58867;-80
2023/02/18 00:57:01;;;;;;;6.50;4.30;;;;;;;10.21;100.00;98621.56;109658;1250;66106;-80
2023/02/18 00:59:28;;;;;;;5.70;4.40;;;;;;;10.22;100.00;98628.23;109654;1251;60801;-80
2023/02/18 01:01:55;;;;;;;4.30;3.90;;;;;;;10.22;100.00;98626.13;109421;1251;64106;-80
2023/02/18 01:04:21;;;;;;;4.40;3.80;;;;;;;10.21;100.00;98630.95;109275;1251;59051;-79
2023/02/18 01:06:48;;;;;;;5.10;4.10;;;;;;;10.21;100.00;98641.42;109583;1250;59020;-80
2023/02/18 01:09:15;;;;;;;5.30;4.20;;;;;;;10.22;100.00;98641.16;109610;1251;66727;-80
2023/02/18 01:11:41;;;;;;;3.90;3.60;;;;;;;10.22;100.00;98647.22;109435;1251;61168;-80
2023/02/18 01:14:08;;;;;;;5.40;4.10;;;;;;;10.21;100.00;98660.08;109628;1251;64845;-80
2023/02/18 01:16:34;;;;;;;8.30;5.00;;;;;;;10.17;100.00;98676.20;109596;1251;58931;-78
2023/02/18 01:19:01;;;;;;;6.80;3.90;;;;;;;10.11;100.00;98698.41;109495;1251;58995;-79
2023/02/18 01:21:28;;;;;;;4.60;4.00;;;;;;;10.08;100.00;98701.31;109637;1251;67087;-77
2023/02/18 01:23:54;;;;;;;5.50;4.50;;;;;;;10.01;100.00;98713.45;109660;1250;60119;-74
2023/02/18 01:26:21;;;;;;;4.40;4.00;;;;;;;9.83;100.00;98725.69;109592;1251;63715;-73
2023/02/18 01:28:47;;;;;;;5.40;4.40;;;;;;;9.63;100.00;98726.02;109688;1251;59018;-73
2023/02/18 01:31:15;;;;;;;6.00;4.10;;;;;;;9.47;100.00;98720.70;109599;1251;59032;-75
2023/02/18 01:33:42;;;;;;;4.50;4.00;;;;;;;9.33;100.00;98732.09;109614;1250;66056;-75
2023/02/18 01:36:10;;;;;;;4.10;3.60;;;;;;;9.21;100.00;98733.58;109648;1251;60137;-75
2023/02/18 01:38:37;;;;;;;3.60;3.30;;;;;;;9.12;100.00;98729.42;109617;1251;64215;-77
2023/02/18 01:41:04;;;;;;;4.60;4.00;;;;;;;9.05;100.00;98731.13;109573;1251;59077;-77
2023/02/18 01:43:32;;;;;;;6.00;3.80;;;;;;;8.98;100.00;98734.20;109371;1251;59063;-77
2023/02/18 01:46:17;;;;;;;5.00;3.30;;;;;;;8.94;100.00;98740.48;109650;1251;67055;-76
2023/02/18 01:48:54;;;;;;;5.00;3.70;;;;;;;8.92;100.00;98742.76;109631;1251;60142;-76
2023/02/18 01:51:50;;;;;;;4.40;3.70;;;;;;;8.89;100.00;98744.84;109586;1251;64532;-77
2023/02/18 01:54:27;;;;;;;3.60;3.30;;;;;;;8.88;100.00;98748.67;108879;1260;59024;-77
2023/02/18 01:56:58;;;;;;;4.80;3.80;;;;;;;8.88;100.00;98754.34;108728;1260;59116;-77
2023/02/18 01:59:33;;;;;;;3.90;3.60;;;;;;;8.89;100.00;98759.62;108879;1260;67280;-78
2023/02/18 02:02:00;;;;;;;4.20;3.50;;;;;;;8.89;100.00;98761.74;108898;1260;59855;-78
2023/02/18 02:04:27;;;;;;;6.30;4.20;;;;;;;8.88;100.00;98753.65;108878;1260;64214;-78
2023/02/18 02:06:54;;;;;;;3.50;3.20;;;;;;;8.87;100.00;98756.69;108888;1261;59067;-77
2023/02/18 02:09:25;;;;;;;5.00;3.80;;;;;;;8.86;100.00;98750.73;108921;1260;59159;-78
2023/02/18 02:12:22;;;;;;;3.50;3.10;;;;;;;8.82;100.00;98749.91;108870;1260;67105;-78
2023/02/18 02:15:10;;;;;;;5.80;2.90;;;;;;;8.76;100.00;98753.13;108898;1260;59843;-78
2023/02/18 02:17:44;;;;;;;2.20;2.00;;;;;;;8.69;100.00;98749.88;108819;1260;63805;-78
2023/02/18 02:20:33;;;;;;;2.20;1.70;;;;;;;8.63;100.00;98748.80;108812;1261;59036;-79
2023/02/18 02:23:02;;;;;;;3.90;1.80;;;;;;;8.54;100.00;98748.66;108889;1260;59031;-79
2023/02/18 02:25:53;;;;;;;3.40;2.10;;;;;;;8.48;100.00;98752.61;108917;1260;67075;-80
2023/02/18 02:28:38;;;;;;;3.10;2.20;;;;;;;8.45;100.00;98751.39;108902;1260;60747;-78
2023/02/18 02:31:31;;;;;;;2.10;1.80;;;;;;;8.41;100.00;98749.64;109234;1251;64777;-78
2023/02/18 02:34:04;;;;;;;3.00;2.00;;;;;;;8.35;100.00;98746.64;109643;1251;59014;-79
2023/02/18 02:36:47;;;;;;;3.20;1.70;;;;;;;8.29;100.00;98747.69;109680;1251;58972;-80
2023/02/18 02:39:53;;;;;;;4.50;2.30;;;;;;;8.24;100.00;98745.00;109676;1251;66680;-79
2023/02/18 02:42:55;;;;;;;3.90;2.10;;;;;;;8.17;100.00;98742.59;109082;1257;60746;-79
2023/02/18 02:45:40;;;;;;;3.40;2.30;;;;;;;8.11;100.00;98746.69;109038;1257;64809;-79
2023/02/18 02:48:35;;;;;;;6.00;2.40;;;;;;;8.05;100.00;98745.98;109012;1257;59071;-80
2023/02/18 02:51:18;;;;;;;4.10;2.30;;;;;;;8.01;100.00;98744.84;109057;1259;58898;-80
2023/02/18 02:53:45;;;;;;;5.60;3.40;;;;;;;7.98;100.00;98749.64;109132;1259;66812;-80
2023/02/18 02:56:18;;;;;;;9.70;5.50;;;;;;;7.93;100.00;98755.77;109039;1257;59944;-80
2023/02/18 02:58:52;;;;;;;9.00;5.70;;;;;;;7.87;100.00;98756.09;109036;1257;64124;-79
2023/02/18 03:01:21;;;;;;;8.30;5.10;;;;;;;7.82;100.00;98760.27;109029;1257;59119;-80
2023/02/18 03:04:16;;;;;;;6.00;5.20;;;;;;;7.80;100.00;98762.20;108998;1257;58986;-81
2023/02/18 03:07:00;;;;;;;8.20;5.00;;;;;;;7.82;100.00;98761.34;108954;1257;66769;-81
2023/02/18 03:09:39;;;;;;;5.30;4.80;;;;;;;7.86;100.00;98760.91;109075;1257;60732;-80
2023/02/18 03:12:05;;;;;;;5.50;4.80;;;;;;;7.90;100.00;98759.81;109029;1257;65230;-79
2023/02/18 03:14:53;;;;;;;4.80;4.30;;;;;;;7.95;100.00;98757.73;109043;1258;59445;-80
2023/02/18 03:17:29;;;;;;;4.90;4.40;;;;;;;7.99;100.00;98757.67;109054;1257;59020;-79
2023/02/18 03:20:05;;;;;;;5.20;4.80;;;;;;;8.01;100.00;98760.20;109535;1251;66721;-81
2023/02/18 03:22:36;;;;;;;8.30;5.20;;;;;;;8.01;100.00;98757.55;109623;1251;60690;-81
2023/02/18 03:25:04;;;;;;;5.90;5.20;;;;;;;8.01;100.00;98761.29;109666;1251;63717;-79
2023/02/18 03:27:36;;;;;;;6.10;4.60;;;;;;;8.02;100.00;98762.31;109693;1251;58988;-79
2023/02/18 03:30:03;;;;;;;4.80;4.30;;;;;;;8.04;100.00;98766.56;109609;1251;58822;-80
2023/02/18 03:32:31;;;;;;;4.30;3.90;;;;;;;8.06;100.00;98769.84;109626;1251;65693;-80
2023/02/18 03:35:10;;;;;;;5.70;4.30;;;;;;;8.07;100.00;98772.92;109680;1251;60696;-81
2023/02/18 03:37:42;;;;;;;4.60;3.90;;;;;;;8.09;100.00;98776.73;109647;1251;65115;-81
2023/02/18 03:40:10;;;;;;;4.60;3.30;;;;;;;8.10;100.00;98778.63;109621;1251;59114;-81
2023/02/18 03:42:37;;;;;;;4.50;3.60;;;;;;;8.15;100.00;98782.55;109646;1251;58999;-80
2023/02/18 03:45:04;;;;;;;4.50;3.20;;;;;;;8.20;100.00;98785.96;109681;1251;67108;-81
2023/02/18 03:47:30;;;;;;;4.10;2.80;;;;;;;8.23;100.00;98794.83;109657;1251;61323;-81
2023/02/18 03:49:57;;;;;;;4.70;2.70;;;;;;;8.24;100.00;98798.27;109553;1251;64894;-81
2023/02/18 03:52:24;;;;;;;4.80;2.80;;;;;;;8.22;100.00;98795.90;109639;1251;58982;-80
2023/02/18 03:54:50;;;;;;;2.60;2.40;;;;;;;8.18;100.00;98796.86;109577;1251;58887;-80
2023/02/18 03:57:17;;;;;;;2.80;2.60;;;;;;;8.11;100.00;98794.42;109661;1251;67051;-80
2023/02/18 03:59:44;;;;;;;3.00;2.40;;;;;;;8.06;100.00;98796.55;109648;1251;60845;-81
2023/02/18 04:02:11;;;;;;;2.50;2.30;;;;;;;8.01;100.00;98798.27;109433;1251;63819;-81
2023/02/18 04:04:37;;;;;;;2.20;1.40;;;;;;;7.99;100.00;98791.11;109631;1251;58996;-81
2023/02/18 04:07:04;;;;;;;1.40;1.30;;;;;;;8.04;100.00;98793.11;109606;1251;58918;-81
2023/02/18 04:09:31;;;;;;;1.70;1.10;;;;;;;8.08;100.00;98800.67;109295;1250;67190;-80
2023/02/18 04:11:57;;;;;;;2.10;1.20;;;;;;;8.07;100.00;98803.37;109613;1251;60970;-80
2023/02/18 04:14:24;;;;;;;1.50;1.00;;;;;;;8.10;100.00;98807.61;109603;1251;64721;-81
2023/02/18 04:16:50;;;;;;;0.80;0.80;;;;;;;8.16;100.00;98812.73;109632;1251;58940;-80
2023/02/18 04:19:17;;;;;;;1.20;0.90;;;;;;;8.16;100.00;98819.64;109693;1251;58825;-81
2023/02/18 04:21:43;;;;;;;3.70;1.00;;;;;;;8.16;100.00;98824.79;109625;1251;67268;-80
2023/02/18 04:24:10;;;;;;;1.60;0.90;;;;;;;8.14;100.00;98826.35;109626;1250;60761;-81
2023/02/18 04:26:37;;;;;;;2.40;1.00;;;;;;;8.08;100.00;98836.79;109674;1251;65430;-80
2023/02/18 04:29:03;;;;;;;1.40;0.80;;;;;;;8.05;100.00;98833.40;109637;1251;58972;-80
2023/02/18 04:31:30;;;;;;;2.10;0.90;;;;;;;8.02;100.00;98835.00;109662;1251;58945;-81
2023/02/18 04:33:56;;;;;;;2.30;0.90;;;;;;;8.00;100.00;98834.77;109459;1255;66818;-81
2023/02/18 04:36:23;;;;;;;2.10;1.20;;;;;;;7.98;100.00;98839.13;109712;1251;59326;-81
2023/02/18 04:38:50;;;;;;;1.60;1.20;;;;;;;7.95;100.00;98838.59;109652;1251;65232;-80
2023/02/18 04:41:16;;;;;;;1.40;1.00;;;;;;;7.91;100.00;98840.77;109644;1251;58952;-80
2023/02/18 04:43:43;;;;;;;1.90;0.90;;;;;;;7.85;100.00;98839.54;109625;1251;58885;-81
2023/02/18 04:46:09;;;;;;;1.30;0.90;;;;;;;7.77;100.00;98836.13;109657;1250;66658;-81
2023/02/18 04:48:36;;;;;;;2.20;1.30;;;;;;;7.69;100.00;98835.33;109679;1250;61116;-80
2023/02/18 04:51:03;;;;;;;1.50;1.30;;;;;;;7.61;100.00;98838.63;109633;1251;64918;-80
2023/02/18 04:53:30;;;;;;;2.20;1.30;;;;;;;7.56;100.00;98844.77;109662;1251;58941;-80
2023/02/18 04:55:57;;;;;;;2.10;1.40;;;;;;;7.54;100.00;98851.58;109680;1251;58871;-81
2023/02/18 04:58:23;;;;;;;1.80;1.30;;;;;;;7.57;100.00;98855.85;109642;1251;66673;-81
2023/02/18 05:00:52;;;;;;;1.20;0.90;;;;;;;7.62;100.00;98851.27;109635;1251;60741;-81
2023/02/18 05:03:18;;;;;;;1.70;1.30;;;;;;;7.64;100.00;98850.09;109648;1251;62781;-80
2023/02/18 05:05:45;;;;;;;1.90;0.90;;;;;;;7.64;100.00;98853.48;109651;1251;58931;-81
2023/02/18 05:08:11;;;;;;;3.70;1.20;;;;;;;7.61;100.00;98857.33;109655;1251;58859;-80
2023/02/18 05:10:38;;;;;;;1.30;0.90;;;;;;;7.63;100.00;98853.87;109674;1251;66725;-80
2023/02/18 05:13:05;;;;;;;1.60;1.00;;;;;;;7.61;100.00;98856.29;109647;1251;60997;-81
2023/02/18 05:15:32;;;;;;;2.50;0.90;;;;;;;7.57;100.00;98855.63;109643;1251;65233;-81
2023/02/18 05:17:58;;;;;;;2.20;0.90;;;;;;;7.58;100.00;98857.20;109554;1251;59007;-80
2023/02/18 05:20:25;;;;;;;1.70;1.00;;;;;;;7.59;100.00;98856.25;109442;1251;58834;-80
2023/02/18 05:22:52;;;;;;;1.90;0.90;;;;;;;7.55;100.00;98853.11;109663;1251;65657;-81
2023/02/18 05:25:18;;;;;;;1.30;1.20;;;;;;;7.50;100.00;98851.79;109604;1251;61002;-80
2023/02/18 05:27:45;;;;;;;2.20;1.20;;;;;;;7.44;100.00;98858.31;109624;1251;64218;-80
2023/02/18 05:30:12;;;;;;;3.40;1.30;;;;;;;7.40;100.00;98863.33;109653;1251;58992;-80
2023/02/18 05:32:38;;;;;;;2.90;1.50;;;;;;;7.36;100.00;98864.42;109681;1251;59078;-79
2023/02/18 05:35:06;;;;;;;1.20;0.80;;;;;;;7.30;100.00;98865.11;109480;1251;64804;-81
2023/02/18 05:37:32;;;;;;;3.60;1.60;;;;;;;7.22;100.00;98866.45;109608;1251;61414;-79
2023/02/18 05:39:59;;;;;;;6.10;1.30;;;;;;;7.19;100.00;98872.28;109645;1251;64077;-81
2023/02/18 05:42:26;;;;;;;2.00;0.90;;;;;;;7.24;100.00;98865.28;109584;1251;59083;-80
2023/02/18 05:44:52;;;;;;;1.90;1.10;;;;;;;7.32;100.00;98862.52;109636;1251;58948;-81
2023/02/18 05:47:19;;;;;;;2.50;1.10;;;;;;;7.36;100.00;98862.30;109600;1250;67093;-81
2023/02/18 05:49:46;;;;;;;2.30;1.10;;;;;;;7.41;100.00;98868.89;109662;1251;61168;-81
2023/02/18 05:52:12;;;;;;;4.00;1.60;;;;;;;7.42;100.00;98873.09;109656;1251;63651;-80
2023/02/18 05:54:39;;;;;;;5.50;2.20;;;;;;;7.37;100.00;98876.21;109595;1251;59759;-81
2023/02/18 05:57:05;;;;;;;3.00;2.60;;;;;;;7.35;100.00;98878.41;109622;1251;58999;-82
2023/02/18 05:59:32;;;;;;;5.00;2.40;;;;;;;7.35;100.00;98880.73;109568;1251;66813;-81
2023/02/18 06:02:00;;;;;;;3.60;1.90;;;;;;;7.40;100.00;98885.80;109576;1251;59745;-81
2023/02/18 06:04:26;;;;;;;2.40;1.40;;;;;;;7.46;100.00;98888.42;109621;1254;64284;-81
2023/02/18 06:06:53;;;;;;;3.00;1.50;;;;;;;7.51;100.00;98891.86;109589;1251;58973;-80
2023/02/18 06:09:20;;;;;;;3.40;1.90;;;;;;;7.56;100.00;98892.98;109715;1251;59007;-81
2023/02/18 06:11:47;;;;;;;2.50;1.30;;;;;;;7.65;100.00;98891.80;109592;1251;66775;-81
2023/02/18 06:14:14;;;;;;;4.30;1.90;;;;;;;7.67;100.00;98890.42;109618;1251;61181;-81
2023/02/18 06:16:40;;;;;;;2.50;1.60;;;;;;;7.69;100.00;98890.51;109284;1251;64779;-81
2023/02/18 06:19:07;;;;;;;4.20;1.60;;;;;;;7.72;100.00;98889.45;109653;1251;59005;-80
2023/02/18 06:21:34;;;;;;;2.40;1.40;;;;;;;7.75;100.00;98891.92;109583;1251;59046;-81
2023/02/18 06:24:00;;;;;;;2.90;1.40;;;;;;;7.82;100.00;98896.84;109579;1251;66871;-81
2023/02/18 06:26:27;;;;;;;1.70;1.00;;;;;;;7.97;100.00;98890.49;109689;1251;59999;-81
2023/02/18 06:28:54;;;;;;;2.30;1.20;;;;;;;8.06;100.00;98883.40;109589;1251;65268;-81
2023/02/18 06:31:20;;;;;;;3.30;1.40;;;;;;;8.14;100.00;98886.30;109643;1251;58906;-80
2023/02/18 06:33:47;;;;;;;3.60;1.20;;;;;;;8.20;100.00;98887.23;109641;1251;58972;-80
2023/02/18 06:36:14;;;;;;;2.20;1.60;;;;;;;8.25;100.00;98889.05;109603;1251;66026;-80
2023/02/18 06:38:43;;;;;;;3.80;1.50;;;;;;;8.27;100.00;98885.73;109613;1251;58975;-80
2023/02/18 06:41:12;;;;;;;3.20;1.30;;;;;;;8.27;100.00;98894.41;109587;1251;64781;-81
2023/02/18 06:43:39;;;;;;;4.00;1.70;;;;;;;8.27;100.00;98898.11;109621;1251;58944;-81
2023/02/18 06:46:06;;;;;;;2.30;1.30;;;;;;;8.27;100.00;98900.23;109634;1251;59523;-81
2023/02/18 06:48:33;;;;;;;5.70;1.60;;;;;;;8.29;100.00;98900.66;109653;1251;66888;-80
2023/02/18 06:50:59;;;;;;;3.20;2.10;;;;;;;8.31;100.00;98900.67;109638;1251;61260;-80
2023/02/18 06:53:26;;;;;;;2.20;1.40;;;;;;;8.38;100.00;98901.72;109648;1251;65172;-80
2023/02/18 06:55:53;;;;;;;3.20;1.40;;;;;;;8.47;100.00;98898.36;109579;1251;59000;-81
2023/02/18 06:58:19;;;;;;;2.00;1.10;;;;;;;8.56;100.00;98901.21;109616;1251;59100;-81
2023/02/18 07:00:46;;;;;;;1.60;0.80;;;;;;;8.63;100.00;98906.48;109710;1251;66062;-81
2023/02/18 07:03:13;;;;;;;2.50;1.00;;;;;;;8.65;100.00;98907.07;109639;1251;60769;-80
2023/02/18 07:05:43;;;;;;;;;;;;;;;8.69;100.00;98912.29;109662;1251;64231;-80
2023/02/18 07:08:10;;;;;;;2.00;1.40;;;;;;;8.75;100.00;98911.55;109596;1251;59040;-81
2023/02/18 07:10:36;;;;;;;2.10;1.20;;;;;;;8.81;100.00;98917.05;109657;1251;58877;-81
2023/02/18 07:13:04;;;;;;;1.80;0.90;;;;;;;8.85;100.00;98915.53;109668;1251;67188;-81
2023/02/18 07:15:31;;;;;;;3.10;1.20;;;;;;;8.90;100.00;98915.46;109591;1251;61077;-81
2023/02/18 07:17:57;;;;;;;3.30;0.80;;;;;;;8.94;100.00;98906.48;109620;1251;64015;-80
2023/02/18 07:20:25;;;;;;;2.20;0.60;;;;;;;8.97;100.00;98910.70;109594;1251;59028;-81
2023/02/18 07:22:52;;;;;;;2.80;1.20;;;;;;;8.99;100.00;98919.44;109675;1251;59022;-81
2023/02/18 07:25:19;;;;;;;2.20;0.80;;;;;;;9.01;100.00;98916.18;109630;1251;67230;-80
2023/02/18 07:27:46;;;;;;;1.20;0.90;;;;;;;9.03;100.00;98909.17;109689;1251;61494;-80
2023/02/18 07:30:13;;;;;;;5.70;1.20;;;;;;;9.03;100.00;98910.93;109653;1251;64935;-80
2023/02/18 07:32:40;;;;;;;2.50;0.90;;;;;;;9.03;100.00;98911.98;109592;1251;58906;-82
2023/02/18 07:35:06;;;;;;;3.20;0.80;;;;;;;9.04;100.00;98915.10;109411;1251;59005;-82
2023/02/18 07:37:33;;;;;;;4.40;1.00;;;;;;;9.06;100.00;98913.58;109597;1251;67127;-80
2023/02/18 07:40:00;;;;;;;4.20;1.20;;;;;;;9.07;100.00;98913.46;109625;1251;61067;-81
2023/02/18 07:42:26;;;;;;;2.50;0.70;;;;;;;9.09;100.00;98908.44;109672;1251;65250;-81
2023/02/18 07:44:53;;;;;;;2.90;0.80;;;;;;;9.09;100.00;98915.46;109519;1251;58971;-82
2023/02/18 07:47:19;;;;;;;1.20;0.90;;;;;;;9.11;100.00;98913.42;109617;1251;59020;-80
2023/02/18 07:49:46;;;;;;;3.50;1.00;;;;;;;9.13;100.00;98918.77;109639;1251;66066;-81
2023/02/18 07:52:14;;;;;;;1.40;0.80;;;;;;;9.15;100.00;98916.52;109634;1251;61189;-81
2023/02/18 07:54:41;;;;;;;1.30;0.80;;;;;;;9.17;100.00;98917.98;109608;1250;63886;-80
2023/02/18 07:57:08;;;;;;;4.60;1.30;;;;;;;9.18;99.20;98922.56;109628;1251;58956;-81
2023/02/18 07:59:35;;;;;;;3.90;0.80;;;;;;;9.18;97.40;98917.91;109595;1251;59051;-81
2023/02/18 08:02:04;;;;;;;2.40;1.10;;;;;;;9.20;90.93;98919.73;109664;1250;67511;-81
2023/02/18 08:04:30;;;;;;;2.00;1.00;;;;;;;9.25;84.32;98928.55;109633;1251;61149;-81
2023/02/18 08:06:57;;;;;;;1.70;0.90;;;;;;;9.28;83.26;98930.67;109644;1251;64146;-82
2023/02/18 08:09:24;;;;;;;3.00;0.70;;;;;;;9.30;83.00;98931.41;109613;1251;59032;-81
2023/02/18 08:11:50;;;;;;;1.90;1.00;;;;;;;9.30;81.50;98932.44;109606;1251;58963;-80
2023/02/18 08:14:17;;;;;;;2.70;0.90;;;;;;;9.30;78.14;98934.20;109763;1251;65651;-81
2023/02/18 08:16:44;;;;;;;1.80;0.80;;;;;;;9.32;76.71;98930.40;109707;1251;60148;-81
2023/02/18 08:19:11;;;;;;;2.70;1.00;;;;;;;9.33;73.54;98925.85;109466;1251;64834;-82
2023/02/18 08:21:37;;;;;;;3.50;1.10;;;;;;;9.37;73.01;98925.63;109719;1251;59134;-81
2023/02/18 08:24:04;;;;;;;3.10;1.00;;;;;;;9.39;73.22;98920.85;109708;1253;59712;-79
2023/02/18 08:26:31;;;;;;;2.10;1.00;;;;;;;9.36;72.47;98923.35;109741;1251;66090;-80
2023/02/18 08:28:57;;;;;;;3.00;1.20;;;;;;;9.34;73.06;98921.38;109442;1251;60097;-79
2023/02/18 08:31:27;;;;;;;2.60;1.30;;;;;;;9.34;73.44;98926.55;109756;1250;62760;-80
2023/02/18 08:33:55;;;;;;;5.00;1.30;;;;;;;9.34;72.01;98928.67;109683;1251;58910;-82
2023/02/18 08:36:23;;;;;;;5.40;1.60;;;;;;;9.34;71.40;98926.73;109628;1251;59027;-80
2023/02/18 08:38:49;;;;;;;2.50;1.10;;;;;;;9.35;72.58;98922.92;109716;1251;66939;-82
2023/02/18 08:41:20;;;;;;;2.80;0.90;;;;;;;9.34;71.45;98925.48;109741;1251;59248;-81
2023/02/18 08:43:47;;;;;;;;;;;;;;;9.33;71.07;98924.46;109382;1251;62938;-81
2023/02/18 08:46:15;;;;;;;2.50;1.20;;;;;;;9.33;70.17;98927.80;109689;1251;59053;-81
2023/02/18 08:48:42;;;;;;;3.30;1.30;;;;;;;9.36;71.08;98925.85;109657;1251;58863;-80
2023/02/18 08:51:11;;;;;;;2.50;1.50;;;;;;;9.37;70.98;98924.20;109696;1251;65989;-80
2023/02/18 08:53:38;;;;;;;4.00;1.20;;;;;;;9.39;70.51;98912.20;109738;1252;59839;-79
2023/02/18 08:56:07;;;;;;;2.20;1.70;;;;;;;9.41;71.25;98916.52;109712;1251;63794;-82
2023/02/18 08:58:36;;;;;;;4.50;0.90;;;;;;;9.41;71.85;98916.70;109643;1251;58951;-81
2023/02/18 09:01:08;;;;;;;3.20;1.30;;;;;;;9.41;70.79;98919.87;109711;1251;59036;-80
2023/02/18 09:03:36;;;;;;;2.90;1.00;;;;;;;9.42;71.77;98911.45;109749;1251;67420;-80
2023/02/18 09:06:03;;;;;;;2.70;1.10;;;;;;;9.42;72.18;98910.38;109763;1251;60909;-80
2023/02/18 09:08:30;;;;;;;5.40;1.10;;;;;;;9.43;71.97;98907.81;109724;1251;65191;-80
2023/02/18 09:10:59;;;;;;;3.90;1.40;;;;;;;9.47;73.22;98916.14;109700;1251;59063;-79
2023/02/18 09:13:26;;;;;;;2.40;1.20;;;;;;;9.51;74.33;98917.84;109670;1251;59027;-79
2023/02/18 09:15:57;;;;;;;5.20;1.40;;;;;;;9.53;73.94;98911.85;108504;1251;1618260;-80
2023/02/18 09:18:24;;;;;;;3.90;1.50;;;;;;;9.53;73.73;98910.58;109752;1251;61233;-81
2023/02/18 09:20:55;;;;;;;3.30;1.50;;;;;;;9.54;73.40;98918.73;109692;1251;62385;-82
2023/02/18 09:23:22;;;;;;;3.50;1.60;;;;;;;9.53;72.81;98920.87;109700;1251;59837;-82
2023/02/18 09:25:48;;;;;;;3.20;1.50;;;;;;;9.54;72.28;98916.07;109293;1251;59007;-81
2023/02/18 09:28:15;;;;;;;4.80;1.50;;;;;;;9.53;71.30;98916.45;109374;1251;66114;-82
2023/02/18 09:30:42;;;;;;;3.70;1.60;;;;;;;9.54;71.84;98915.89;109640;1251;59745;-82
2023/02/18 09:33:08;;;;;;;5.80;1.50;;;;;;;9.54;71.60;98914.11;109617;1251;63689;-82
2023/02/18 09:35:40;;;;;;;5.00;1.80;;;;;;;9.54;70.98;98917.60;109283;1251;58990;-81
2023/02/18 09:38:09;;;;;;;3.40;1.50;;;;;;;9.57;72.07;98917.60;109400;1251;59006;-81
2023/02/18 09:40:41;;;;;;;4.00;2.00;;;;;;;9.62;71.94;98918.86;109624;1251;66072;-81
2023/02/18 09:43:36;;;;;;;5.60;2.40;;;;;;;9.69;72.09;98915.79;109667;1251;59721;-81
2023/02/18 09:46:12;;;;;;;5.90;2.50;;;;;;;9.78;73.08;98912.89;109023;1261;64131;-81
2023/02/18 09:48:41;;;;;;;4.70;2.90;;;;;;;9.92;74.13;98914.27;108988;1259;58999;-81
2023/02/18 09:51:13;;;;;;;4.60;3.20;;;;;;;10.09;73.99;98913.13;109074;1259;59314;-81
2023/02/18 09:53:43;;;;;;;4.70;2.60;;;;;;;10.20;73.57;98899.80;109044;1261;65942;-80
2023/02/18 09:56:14;;;;;;;5.50;3.20;;;;;;;10.26;72.99;98894.95;109001;1259;60816;-81
2023/02/18 09:58:43;;;;;;;5.80;3.80;;;;;;;10.38;73.09;98887.42;108904;1260;64138;-80
2023/02/18 10:01:27;;;;;;;6.10;3.10;;;;;;;10.49;72.58;98880.14;108871;1258;59053;-81
2023/02/18 10:03:59;;;;;;;5.70;2.90;;;;;;;10.47;71.85;98879.20;109072;1258;59092;-80
2023/02/18 10:06:30;;;;;;;6.00;2.30;;;;;;;10.39;71.50;98876.18;109022;1260;66284;-80
2023/02/18 10:09:04;;;;;;;2.60;1.60;;;;;;;10.29;68.24;98868.20;108887;1259;60075;-80
2023/02/18 10:11:36;;;;;;;3.80;2.10;;;;;;;10.17;66.62;98865.91;108942;1260;64199;-82
2023/02/18 10:14:11;;;;;;;4.50;1.60;;;;;;;10.10;67.25;98875.29;108899;1264;59170;-81
2023/02/18 10:16:38;;;;;;;4.10;2.10;;;;;;;10.05;66.57;98867.66;108917;1258;59086;-81
2023/02/18 10:19:19;;;;;;;5.40;2.50;;;;;;;10.00;67.18;98875.40;109071;1258;66713;-81
2023/02/18 10:21:47;;;;;;;5.10;1.90;;;;;;;9.98;67.97;98877.18;109089;1258;61164;-81
2023/02/18 10:24:36;;;;;;;3.60;1.70;;;;;;;9.92;65.31;98869.23;109242;1251;63873;-80
2023/02/18 10:27:05;;;;;;;2.80;1.10;;;;;;;9.90;64.57;98869.02;109599;1251;58997;-81
2023/02/18 10:29:33;;;;;;;3.10;1.30;;;;;;;9.92;65.51;98878.29;109622;1252;59042;-81
2023/02/18 10:32:36;;;;;;;2.00;1.20;;;;;;;9.91;65.59;98876.23;109643;1251;67443;-81
2023/02/18 10:35:48;;;;;;;1.90;1.20;;;;;;;9.84;65.05;98879.63;109608;1251;60725;-81
2023/02/18 10:38:36;;;;;;;4.80;2.10;;;;;;;9.77;66.84;98874.09;109008;1260;64110;-81
2023/02/18 10:41:15;;;;;;;2.40;1.30;;;;;;;9.75;67.36;98884.36;108962;1263;59094;-80
2023/02/18 10:44:08;;;;;;;2.00;1.10;;;;;;;9.71;68.56;98886.55;109016;1259;58905;-80
2023/02/18 10:46:52;;;;;;;4.40;2.70;;;;;;;9.63;69.53;98886.00;108882;1259;67230;-81
2023/02/18 10:49:28;;;;;;;4.40;2.40;;;;;;;9.53;70.34;98880.83;109009;1259;60953;-81
2023/02/18 10:51:57;;;;;;;2.40;1.20;;;;;;;9.40;70.97;98884.85;108928;1259;62955;-82
2023/02/18 10:54:25;;;;;;;4.00;1.40;;;;;;;9.26;73.07;98879.30;108836;1260;59100;-80
2023/02/18 10:56:58;;;;;;;2.50;1.10;;;;;;;9.16;75.44;98880.16;108967;1260;58999;-80
2023/02/18 10:59:32;;;;;;;3.40;1.40;;;;;;;8.97;77.75;98879.37;109003;1260;66125;-79
2023/02/18 11:02:02;;;;;;;2.40;1.10;;;;;;;8.82;80.41;98877.84;108996;1259;61106;-79
2023/02/18 11:04:44;;;;;;;2.70;1.60;;;;;;;8.69;83.92;98876.87;108968;1258;72777;-79
2023/02/18 11:07:20;;;;;;;4.60;1.70;;;;;;;8.56;85.92;98874.43;109044;1259;59008;-79
2023/02/18 11:10:08;;;;;;;4.30;1.90;;;;;;;8.47;88.17;98875.70;109075;1259;58994;-80
2023/02/18 11:12:47;;;;;;;4.20;1.80;;;;;;;8.43;91.73;98879.14;109002;1260;66236;-80
2023/02/18 11:15:13;;;;;;;4.00;1.30;;;;;;;8.38;95.68;98879.23;109317;1251;60046;-80
2023/02/18 11:17:42;;;;;;;3.20;1.80;;;;;;;8.30;97.21;98879.51;109636;1251;64774;-81
2023/02/18 11:20:21;;;;;;;4.20;1.60;;;;;;;8.26;99.15;98877.27;109362;1251;59047;-80
2023/02/18 11:22:49;;;;;;;3.80;1.70;;;;;;;8.19;100.00;98873.96;109603;1251;59082;-81
2023/02/18 11:25:25;;;;;;;3.50;1.70;;;;;;;8.11;100.00;98870.23;109611;1251;67155;-81
2023/02/18 11:27:58;;;;;;;5.30;1.70;;;;;;;8.02;100.00;98856.06;109303;1251;59855;-79
2023/02/18 11:30:32;;;;;;;5.60;1.70;;;;;;;7.95;100.00;98854.02;109576;1251;64158;-80
2023/02/18 11:33:05;;;;;;;3.00;1.70;;;;;;;7.87;100.00;98847.56;109535;1251;59059;-80
2023/02/18 11:35:33;;;;;;;3.90;1.90;;;;;;;7.82;100.00;98841.80;109598;1251;59008;-80
2023/02/18 11:38:02;;;;;;;5.70;2.20;;;;;;;7.82;100.00;98837.38;109449;1251;65763;-81
2023/02/18 11:40:35;;;;;;;4.50;3.10;;;;;;;7.85;100.00;98832.24;109711;1251;61123;-80